sensor_id;sensor_type;location;lat;lon;timestamp;pressure;altitude;pressure_sealevel;temperature;humidity
49529;BME280;35423;37.320;-121.762;2022-07-30T00:00:32;99458.87;;;44.18;10.96
49529;BME280;35423;37.320;-121.762;2022-07-30T00:02:57;99455.71;;;44.09;10.85
49529;BME280;35423;37.320;-121.762;2022-07-30T00:05:25;99455.65;;;43.34;11.21
49529;BME280;35423;37.320;-121.762;2022-07-30T00:07:50;99459.15;;;43.66;11.29
49529;BME280;35423;37.320;-121.762;2022-07-30T00:10:18;99460.83;;;43.49;11.54
49529;BME280;35423;37.320;-121.762;2022-07-30T00:12:43;99466.27;;;42.98;11.75
49529;BME280;35423;37.320;-121.762;2022-07-30T00:15:09;99462.44;;;42.90;11.86
49529;BME280;35423;37.320;-121.762;2022-07-30T00:17:35;99465.57;;;42.48;11.97
49529;BME280;35423;37.320;-121.762;2022-07-30T00:20:03;99469.10;;;42.95;12.03
49529;BME280;35423;37.320;-121.762;2022-07-30T00:22:29;99470.31;;;42.51;12.13
49529;BME280;35423;37.320;-121.762;2022-07-30T00:24:56;99468.82;;;42.26;12.29
49529;BME280;35423;37.320;-121.762;2022-07-30T00:27:22;99466.66;;;42.04;12.42
49529;BME280;35423;37.320;-121.762;2022-07-30T00:29:49;99466.68;;;41.75;12.56
49529;BME280;35423;37.320;-121.762;2022-07-30T00:32:14;99468.20;;;41.61;12.69
49529;BME280;35423;37.320;-121.762;2022-07-30T00:34:43;99464.30;;;41.74;12.70
49529;BME280;35423;37.320;-121.762;2022-07-30T00:37:14;99466.52;;;41.59;12.78
49529;BME280;35423;37.320;-121.762;2022-07-30T00:39:49;99469.60;;;41.22;12.97
49529;BME280;35423;37.320;-121.762;2022-07-30T00:42:17;99472.41;;;40.78;13.23
49529;BME280;35423;37.320;-121.762;2022-07-30T00:44:45;99474.62;;;40.39;13.31
49529;BME280;35423;37.320;-121.762;2022-07-30T00:47:11;99473.65;;;40.74;13.43
49529;BME280;35423;37.320;-121.762;2022-07-30T00:49:37;99470.91;;;40.49;13.54
49529;BME280;35423;37.320;-121.762;2022-07-30T00:52:04;99468.48;;;40.33;13.63
49529;BME280;35423;37.320;-121.762;2022-07-30T00:54:29;99473.81;;;40.21;13.67
49529;BME280;35423;37.320;-121.762;2022-07-30T00:56:56;99473.09;;;39.95;13.81
49529;BME280;35423;37.320;-121.762;2022-07-30T00:59:22;99473.96;;;39.91;13.87
49529;BME280;35423;37.320;-121.762;2022-07-30T01:01:56;99474.16;;;40.25;13.95
49529;BME280;35423;37.320;-121.762;2022-07-30T01:04:21;99475.28;;;39.69;14.03
49529;BME280;35423;37.320;-121.762;2022-07-30T01:06:47;99480.96;;;39.75;14.22
49529;BME280;35423;37.320;-121.762;2022-07-30T01:09:14;99483.80;;;39.48;14.27
49529;BME280;35423;37.320;-121.762;2022-07-30T01:11:41;99483.56;;;39.45;14.42
49529;BME280;35423;37.320;-121.762;2022-07-30T01:14:08;99486.75;;;39.32;14.47
49529;BME280;35423;37.320;-121.762;2022-07-30T01:16:32;99487.22;;;38.84;14.57
49529;BME280;35423;37.320;-121.762;2022-07-30T01:19:01;99492.42;;;38.82;14.75
49529;BME280;35423;37.320;-121.762;2022-07-30T01:21:34;99495.39;;;38.81;14.76
49529;BME280;35423;37.320;-121.762;2022-07-30T01:24:05;99494.25;;;38.74;14.80
49529;BME280;35423;37.320;-121.762;2022-07-30T01:26:24;99497.26;;;38.42;14.94
49529;BME280;35423;37.320;-121.762;2022-07-30T01:28:52;99501.43;;;38.40;15.09
49529;BME280;35423;37.320;-121.762;2022-07-30T01:31:15;99504.68;;;38.12;15.24
49529;BME280;35423;37.320;-121.762;2022-07-30T01:33:43;99504.50;;;38.19;15.28
49529;BME280;35423;37.320;-121.762;2022-07-30T01:36:11;99507.25;;;37.92;15.33
49529;BME280;35423;37.320;-121.762;2022-07-30T01:38:33;99509.59;;;38.01;15.41
49529;BME280;35423;37.320;-121.762;2022-07-30T01:40:59;99510.28;;;38.10;15.37
49529;BME280;35423;37.320;-121.762;2022-07-30T01:43:26;99510.11;;;38.11;15.37
49529;BME280;35423;37.320;-121.762;2022-07-30T01:45:52;99509.54;;;37.68;15.62
49529;BME280;35423;37.320;-121.762;2022-07-30T01:48:19;99512.65;;;37.30;15.85
49529;BME280;35423;37.320;-121.762;2022-07-30T01:50:45;99514.42;;;36.92;16.09
49529;BME280;35423;37.320;-121.762;2022-07-30T01:53:12;99512.75;;;36.68;16.31
49529;BME280;35423;37.320;-121.762;2022-07-30T01:55:39;99510.05;;;36.60;16.40
49529;BME280;35423;37.320;-121.762;2022-07-30T01:58:05;99512.16;;;36.78;16.46
49529;BME280;35423;37.320;-121.762;2022-07-30T02:00:31;99518.85;;;36.05;16.61
49529;BME280;35423;37.320;-121.762;2022-07-30T02:02:55;99516.72;;;36.46;16.68
49529;BME280;35423;37.320;-121.762;2022-07-30T02:05:22;99516.35;;;36.21;16.68
49529;BME280;35423;37.320;-121.762;2022-07-30T02:07:55;99521.73;;;36.50;16.67
49529;BME280;35423;37.320;-121.762;2022-07-30T02:10:21;99527.35;;;36.43;16.73
49529;BME280;35423;37.320;-121.762;2022-07-30T02:12:45;99531.13;;;36.52;16.58
49529;BME280;35423;37.320;-121.762;2022-07-30T02:15:13;99539.55;;;36.02;16.69
49529;BME280;35423;37.320;-121.762;2022-07-30T02:17:45;99538.20;;;36.04;16.93
49529;BME280;35423;37.320;-121.762;2022-07-30T02:20:12;99540.90;;;35.39;17.24
49529;BME280;35423;37.320;-121.762;2022-07-30T02:22:36;99543.58;;;35.29;17.32
49529;BME280;35423;37.320;-121.762;2022-07-30T02:25:00;99544.31;;;34.89;17.56
49529;BME280;35423;37.320;-121.762;2022-07-30T02:27:31;99546.84;;;34.95;17.66
49529;BME280;35423;37.320;-121.762;2022-07-30T02:29:54;99549.02;;;35.16;17.70
49529;BME280;35423;37.320;-121.762;2022-07-30T02:32:20;99549.39;;;34.73;17.98
49529;BME280;35423;37.320;-121.762;2022-07-30T02:34:56;99554.01;;;34.59;18.05
49529;BME280;35423;37.320;-121.762;2022-07-30T02:37:24;99551.70;;;34.22;18.27
49529;BME280;35423;37.320;-121.762;2022-07-30T02:39:50;99553.90;;;34.01;18.42
49529;BME280;35423;37.320;-121.762;2022-07-30T02:42:19;99557.65;;;33.45;18.74
49529;BME280;35423;37.320;-121.762;2022-07-30T02:44:45;99559.84;;;33.80;18.82
49529;BME280;35423;37.320;-121.762;2022-07-30T02:47:12;99559.41;;;33.57;19.00
49529;BME280;35423;37.320;-121.762;2022-07-30T02:49:40;99560.46;;;33.32;19.19
49529;BME280;35423;37.320;-121.762;2022-07-30T02:52:08;99566.11;;;33.23;19.25
49529;BME280;35423;37.320;-121.762;2022-07-30T02:54:32;99571.38;;;33.27;19.41
49529;BME280;35423;37.320;-121.762;2022-07-30T02:56:59;99573.31;;;32.71;19.57
49529;BME280;35423;37.320;-121.762;2022-07-30T02:59:23;99575.63;;;32.52;19.72
49529;BME280;35423;37.320;-121.762;2022-07-30T03:01:51;99581.58;;;32.87;19.87
49529;BME280;35423;37.320;-121.762;2022-07-30T03:04:19;99584.02;;;32.56;20.04
49529;BME280;35423;37.320;-121.762;2022-07-30T03:06:44;99588.09;;;32.55;20.19
49529;BME280;35423;37.320;-121.762;2022-07-30T03:09:10;99587.87;;;31.98;20.30
49529;BME280;35423;37.320;-121.762;2022-07-30T03:11:36;99589.36;;;32.23;20.39
49529;BME280;35423;37.320;-121.762;2022-07-30T03:14:01;99596.25;;;31.93;20.61
49529;BME280;35423;37.320;-121.762;2022-07-30T03:16:35;99598.06;;;31.68;20.65
49529;BME280;35423;37.320;-121.762;2022-07-30T03:18:58;99604.20;;;31.61;20.85
49529;BME280;35423;37.320;-121.762;2022-07-30T03:21:26;99613.28;;;31.45;21.01
49529;BME280;35423;37.320;-121.762;2022-07-30T03:23:50;99620.49;;;31.85;21.09
49529;BME280;35423;37.320;-121.762;2022-07-30T03:26:19;99619.87;;;31.14;21.22
49529;BME280;35423;37.320;-121.762;2022-07-30T03:28:42;99622.18;;;31.01;21.37
49529;BME280;35423;37.320;-121.762;2022-07-30T03:31:07;99623.15;;;30.99;21.41
49529;BME280;35423;37.320;-121.762;2022-07-30T03:33:34;99625.19;;;31.04;21.51
49529;BME280;35423;37.320;-121.762;2022-07-30T03:35:59;99626.44;;;31.13;21.66
49529;BME280;35423;37.320;-121.762;2022-07-30T03:38:25;99630.24;;;30.48;21.78
49529;BME280;35423;37.320;-121.762;2022-07-30T03:40:51;99634.26;;;30.77;21.93
49529;BME280;35423;37.320;-121.762;2022-07-30T03:43:20;99635.24;;;30.59;22.10
49529;BME280;35423;37.320;-121.762;2022-07-30T03:45:45;99634.25;;;30.63;22.11
49529;BME280;35423;37.320;-121.762;2022-07-30T03:48:10;99636.63;;;30.48;22.31
49529;BME280;35423;37.320;-121.762;2022-07-30T03:50:37;99643.47;;;30.16;22.37
49529;BME280;35423;37.320;-121.762;2022-07-30T03:53:05;99652.35;;;29.93;22.54
49529;BME280;35423;37.320;-121.762;2022-07-30T03:55:31;99653.10;;;30.15;22.61
49529;BME280;35423;37.320;-121.762;2022-07-30T03:57:56;99646.79;;;30.07;22.78
49529;BME280;35423;37.320;-121.762;2022-07-30T04:00:22;99647.42;;;30.03;22.84
49529;BME280;35423;37.320;-121.762;2022-07-30T04:02:52;99647.72;;;29.92;22.97
49529;BME280;35423;37.320;-121.762;2022-07-30T04:05:17;99653.50;;;29.53;23.06
49529;BME280;35423;37.320;-121.762;2022-07-30T04:07:42;99656.10;;;29.66;23.18
49529;BME280;35423;37.320;-121.762;2022-07-30T04:10:08;99658.83;;;29.43;23.36
49529;BME280;35423;37.320;-121.762;2022-07-30T04:12:33;99658.94;;;29.31;23.45
49529;BME280;35423;37.320;-121.762;2022-07-30T04:14:58;99662.43;;;29.14;23.56
49529;BME280;35423;37.320;-121.762;2022-07-30T04:17:34;99663.66;;;29.12;23.65
49529;BME280;35423;37.320;-121.762;2022-07-30T04:19:52;99667.95;;;29.20;23.66
49529;BME280;35423;37.320;-121.762;2022-07-30T04:22:19;99669.71;;;29.03;23.84
49529;BME280;35423;37.320;-121.762;2022-07-30T04:24:45;99672.50;;;28.59;24.10
49529;BME280;35423;37.320;-121.762;2022-07-30T04:27:09;99672.13;;;28.74;24.22
49529;BME280;35423;37.320;-121.762;2022-07-30T04:29:42;99676.44;;;28.59;24.33
49529;BME280;35423;37.320;-121.762;2022-07-30T04:32:11;99681.09;;;28.40;24.52
49529;BME280;35423;37.320;-121.762;2022-07-30T04:34:39;99684.60;;;28.51;24.52
49529;BME280;35423;37.320;-121.762;2022-07-30T04:37:05;99686.50;;;28.34;24.80
49529;BME280;35423;37.320;-121.762;2022-07-30T04:39:31;99686.51;;;28.31;24.82
49529;BME280;35423;37.320;-121.762;2022-07-30T04:41:58;99688.78;;;28.30;24.82
49529;BME280;35423;37.320;-121.762;2022-07-30T04:44:26;99690.77;;;28.09;24.98
49529;BME280;35423;37.320;-121.762;2022-07-30T04:46:51;99688.61;;;27.87;25.14
49529;BME280;35423;37.320;-121.762;2022-07-30T04:49:20;99686.46;;;27.86;25.20
49529;BME280;35423;37.320;-121.762;2022-07-30T04:51:45;99687.71;;;27.97;25.28
49529;BME280;35423;37.320;-121.762;2022-07-30T04:54:12;99689.16;;;27.93;25.38
49529;BME280;35423;37.320;-121.762;2022-07-30T04:56:40;99684.13;;;27.84;25.51
49529;BME280;35423;37.320;-121.762;2022-07-30T04:59:06;99680.21;;;27.39;25.65
49529;BME280;35423;37.320;-121.762;2022-07-30T05:01:34;99680.09;;;27.51;25.68
49529;BME280;35423;37.320;-121.762;2022-07-30T05:03:59;99682.08;;;27.54;25.79
49529;BME280;35423;37.320;-121.762;2022-07-30T05:06:27;99688.50;;;27.42;25.95
49529;BME280;35423;37.320;-121.762;2022-07-30T05:08:56;99693.83;;;27.46;26.18
49529;BME280;35423;37.320;-121.762;2022-07-30T05:11:24;99695.51;;;27.21;26.21
49529;BME280;35423;37.320;-121.762;2022-07-30T05:13:49;99702.33;;;27.05;26.36
49529;BME280;35423;37.320;-121.762;2022-07-30T05:16:14;99705.10;;;27.24;26.37
49529;BME280;35423;37.320;-121.762;2022-07-30T05:18:40;99703.33;;;27.21;26.45
49529;BME280;35423;37.320;-121.762;2022-07-30T05:21:05;99705.43;;;27.09;26.58
49529;BME280;35423;37.320;-121.762;2022-07-30T05:23:31;99707.25;;;26.75;26.71
49529;BME280;35423;37.320;-121.762;2022-07-30T05:25:57;99701.90;;;26.88;26.77
49529;BME280;35423;37.320;-121.762;2022-07-30T05:28:30;99698.08;;;26.71;26.91
49529;BME280;35423;37.320;-121.762;2022-07-30T05:30:57;99694.49;;;26.58;27.05
49529;BME280;35423;37.320;-121.762;2022-07-30T05:33:25;99693.75;;;26.65;27.21
49529;BME280;35423;37.320;-121.762;2022-07-30T05:35:50;99691.64;;;26.38;27.28
49529;BME280;35423;37.320;-121.762;2022-07-30T05:38:24;99689.78;;;26.57;27.33
49529;BME280;35423;37.320;-121.762;2022-07-30T05:40:50;99689.93;;;26.73;27.23
49529;BME280;35423;37.320;-121.762;2022-07-30T05:43:16;99693.91;;;26.51;27.41
49529;BME280;35423;37.320;-121.762;2022-07-30T05:45:45;99695.96;;;26.80;27.36
49529;BME280;35423;37.320;-121.762;2022-07-30T05:48:10;99696.44;;;26.61;27.30
49529;BME280;35423;37.320;-121.762;2022-07-30T05:50:38;99692.31;;;26.73;26.97
49529;BME280;35423;37.320;-121.762;2022-07-30T05:53:06;99691.59;;;26.44;27.17
49529;BME280;35423;37.320;-121.762;2022-07-30T05:55:32;99690.82;;;26.54;27.36
49529;BME280;35423;37.320;-121.762;2022-07-30T05:58:03;99695.89;;;26.19;27.51
49529;BME280;35423;37.320;-121.762;2022-07-30T06:00:29;99698.31;;;26.48;27.71
49529;BME280;35423;37.320;-121.762;2022-07-30T06:02:57;99695.35;;;26.30;27.86
49529;BME280;35423;37.320;-121.762;2022-07-30T06:05:26;99690.38;;;26.19;27.99
49529;BME280;35423;37.320;-121.762;2022-07-30T06:07:54;99691.79;;;26.18;28.02
49529;BME280;35423;37.320;-121.762;2022-07-30T06:10:21;99693.58;;;26.11;28.10
49529;BME280;35423;37.320;-121.762;2022-07-30T06:12:49;99694.00;;;26.06;28.12
49529;BME280;35423;37.320;-121.762;2022-07-30T06:15:16;99695.26;;;25.91;28.27
49529;BME280;35423;37.320;-121.762;2022-07-30T06:17:45;99696.12;;;25.84;28.36
49529;BME280;35423;37.320;-121.762;2022-07-30T06:20:12;99696.20;;;25.81;28.38
49529;BME280;35423;37.320;-121.762;2022-07-30T06:22:41;99694.73;;;26.01;28.45
49529;BME280;35423;37.320;-121.762;2022-07-30T06:25:07;99696.52;;;26.19;28.50
49529;BME280;35423;37.320;-121.762;2022-07-30T06:27:32;99697.97;;;25.70;28.50
49529;BME280;35423;37.320;-121.762;2022-07-30T06:29:58;99703.17;;;25.63;28.58
49529;BME280;35423;37.320;-121.762;2022-07-30T06:32:23;99700.65;;;25.86;28.58
49529;BME280;35423;37.320;-121.762;2022-07-30T06:34:51;99698.74;;;25.78;28.65
49529;BME280;35423;37.320;-121.762;2022-07-30T06:37:16;99699.61;;;25.51;28.57
49529;BME280;35423;37.320;-121.762;2022-07-30T06:39:42;99701.92;;;25.67;28.80
49529;BME280;35423;37.320;-121.762;2022-07-30T06:42:08;99698.26;;;25.54;28.94
49529;BME280;35423;37.320;-121.762;2022-07-30T06:44:33;99691.03;;;25.43;29.04
49529;BME280;35423;37.320;-121.762;2022-07-30T06:47:03;99690.88;;;25.45;29.11
49529;BME280;35423;37.320;-121.762;2022-07-30T06:49:31;99688.26;;;25.39;29.16
49529;BME280;35423;37.320;-121.762;2022-07-30T06:51:58;99692.90;;;25.40;29.17
49529;BME280;35423;37.320;-121.762;2022-07-30T06:54:24;99694.68;;;25.41;29.19
49529;BME280;35423;37.320;-121.762;2022-07-30T06:56:54;99691.47;;;25.28;29.26
49529;BME280;35423;37.320;-121.762;2022-07-30T06:59:18;99693.73;;;25.36;29.23
49529;BME280;35423;37.320;-121.762;2022-07-30T07:01:43;99697.78;;;25.43;29.18
49529;BME280;35423;37.320;-121.762;2022-07-30T07:04:12;99700.30;;;25.59;29.08
49529;BME280;35423;37.320;-121.762;2022-07-30T07:06:38;99703.01;;;25.53;29.08
49529;BME280;35423;37.320;-121.762;2022-07-30T07:09:12;99709.46;;;25.89;29.01
49529;BME280;35423;37.320;-121.762;2022-07-30T07:11:38;99707.29;;;25.66;28.96
49529;BME280;35423;37.320;-121.762;2022-07-30T07:14:03;99702.05;;;25.89;28.99
49529;BME280;35423;37.320;-121.762;2022-07-30T07:16:28;99703.32;;;25.93;28.98
49529;BME280;35423;37.320;-121.762;2022-07-30T07:18:54;99702.65;;;25.80;29.01
49529;BME280;35423;37.320;-121.762;2022-07-30T07:21:21;99706.51;;;25.74;29.08
49529;BME280;35423;37.320;-121.762;2022-07-30T07:23:50;99704.48;;;25.64;28.99
49529;BME280;35423;37.320;-121.762;2022-07-30T07:26:15;99701.73;;;25.58;29.21
49529;BME280;35423;37.320;-121.762;2022-07-30T07:28:43;99703.77;;;25.64;29.31
49529;BME280;35423;37.320;-121.762;2022-07-30T07:31:10;99705.53;;;25.73;29.13
49529;BME280;35423;37.320;-121.762;2022-07-30T07:33:36;99707.42;;;25.56;29.26
49529;BME280;35423;37.320;-121.762;2022-07-30T07:36:02;99707.31;;;25.74;29.34
49529;BME280;35423;37.320;-121.762;2022-07-30T07:38:28;99705.75;;;25.54;29.35
49529;BME280;35423;37.320;-121.762;2022-07-30T07:40:53;99705.41;;;25.32;29.32
49529;BME280;35423;37.320;-121.762;2022-07-30T07:43:19;99704.41;;;25.59;29.35
49529;BME280;35423;37.320;-121.762;2022-07-30T07:45:47;99702.31;;;25.52;29.40
49529;BME280;35423;37.320;-121.762;2022-07-30T07:48:14;99698.08;;;25.51;29.35
49529;BME280;35423;37.320;-121.762;2022-07-30T07:50:39;99695.10;;;25.45;29.47
49529;BME280;35423;37.320;-121.762;2022-07-30T07:53:06;99690.32;;;25.40;29.55
49529;BME280;35423;37.320;-121.762;2022-07-30T07:55:34;99690.71;;;25.33;29.61
49529;BME280;35423;37.320;-121.762;2022-07-30T07:58:06;99688.99;;;25.00;29.71
49529;BME280;35423;37.320;-121.762;2022-07-30T08:00:32;99683.89;;;25.27;29.78
49529;BME280;35423;37.320;-121.762;2022-07-30T08:02:59;99686.53;;;25.41;29.66
49529;BME280;35423;37.320;-121.762;2022-07-30T08:05:25;99688.42;;;25.23;29.81
49529;BME280;35423;37.320;-121.762;2022-07-30T08:07:53;99689.37;;;25.23;29.91
49529;BME280;35423;37.320;-121.762;2022-07-30T08:10:23;99687.77;;;25.17;29.93
49529;BME280;35423;37.320;-121.762;2022-07-30T08:12:49;99688.45;;;25.35;29.99
49529;BME280;35423;37.320;-121.762;2022-07-30T08:15:17;99688.82;;;25.45;30.15
49529;BME280;35423;37.320;-121.762;2022-07-30T08:17:45;99688.71;;;25.29;30.18
49529;BME280;35423;37.320;-121.762;2022-07-30T08:20:13;99688.23;;;24.87;30.33
49529;BME280;35423;37.320;-121.762;2022-07-30T08:22:37;99684.07;;;24.80;30.48
49529;BME280;35423;37.320;-121.762;2022-07-30T08:25:06;99680.91;;;25.09;30.40
49529;BME280;35423;37.320;-121.762;2022-07-30T08:27:31;99679.01;;;25.23;30.47
49529;BME280;35423;37.320;-121.762;2022-07-30T08:30:03;99676.83;;;25.01;30.52
49529;BME280;35423;37.320;-121.762;2022-07-30T08:32:24;99679.20;;;24.86;30.40
49529;BME280;35423;37.320;-121.762;2022-07-30T08:34:52;99679.26;;;25.23;30.59
49529;BME280;35423;37.320;-121.762;2022-07-30T08:37:18;99680.84;;;25.54;30.60
49529;BME280;35423;37.320;-121.762;2022-07-30T08:39:44;99682.79;;;25.31;30.59
49529;BME280;35423;37.320;-121.762;2022-07-30T08:42:10;99687.36;;;24.69;30.66
49529;BME280;35423;37.320;-121.762;2022-07-30T08:44:35;99689.27;;;24.83;30.77
49529;BME280;35423;37.320;-121.762;2022-07-30T08:47:05;99691.08;;;25.03;30.76
49529;BME280;35423;37.320;-121.762;2022-07-30T08:49:31;99689.62;;;25.01;30.79
49529;BME280;35423;37.320;-121.762;2022-07-30T08:51:55;99687.54;;;25.07;30.72
49529;BME280;35423;37.320;-121.762;2022-07-30T08:54:24;99691.18;;;24.77;30.80
49529;BME280;35423;37.320;-121.762;2022-07-30T08:56:51;99689.57;;;24.88;30.94
49529;BME280;35423;37.320;-121.762;2022-07-30T08:59:23;99690.33;;;24.85;30.96
49529;BME280;35423;37.320;-121.762;2022-07-30T09:01:45;99691.15;;;24.86;30.95
49529;BME280;35423;37.320;-121.762;2022-07-30T09:04:11;99691.95;;;24.80;30.99
49529;BME280;35423;37.320;-121.762;2022-07-30T09:06:36;99693.25;;;24.73;31.05
49529;BME280;35423;37.320;-121.762;2022-07-30T09:09:02;99694.63;;;24.66;31.14
49529;BME280;35423;37.320;-121.762;2022-07-30T09:11:32;99693.23;;;24.84;31.04
49529;BME280;35423;37.320;-121.762;2022-07-30T09:16:25;99696.75;;;24.56;31.20
49529;BME280;35423;37.320;-121.762;2022-07-30T09:18:51;99697.67;;;24.45;31.29
49529;BME280;35423;37.320;-121.762;2022-07-30T09:21:21;99695.63;;;24.39;31.36
49529;BME280;35423;37.320;-121.762;2022-07-30T09:26:17;99693.50;;;24.63;31.37
49529;BME280;35423;37.320;-121.762;2022-07-30T09:28:45;99695.58;;;24.66;31.17
49529;BME280;35423;37.320;-121.762;2022-07-30T09:31:13;99694.55;;;24.57;31.21
49529;BME280;35423;37.320;-121.762;2022-07-30T09:33:42;99695.53;;;24.63;31.18
49529;BME280;35423;37.320;-121.762;2022-07-30T09:36:09;99693.18;;;24.42;31.36
49529;BME280;35423;37.320;-121.762;2022-07-30T09:38:42;99695.63;;;24.18;31.60
49529;BME280;35423;37.320;-121.762;2022-07-30T09:41:01;99695.43;;;24.18;31.67
49529;BME280;35423;37.320;-121.762;2022-07-30T09:43:26;99692.75;;;24.17;31.73
49529;BME280;35423;37.320;-121.762;2022-07-30T09:45:53;99694.20;;;24.43;31.75
49529;BME280;35423;37.320;-121.762;2022-07-30T09:48:21;99692.59;;;24.60;31.83
49529;BME280;35423;37.320;-121.762;2022-07-30T09:50:48;99693.49;;;24.39;31.85
49529;BME280;35423;37.320;-121.762;2022-07-30T09:53:16;99692.86;;;24.09;31.86
49529;BME280;35423;37.320;-121.762;2022-07-30T09:55:42;99694.78;;;24.03;31.99
49529;BME280;35423;37.320;-121.762;2022-07-30T09:58:08;99695.62;;;24.36;31.91
49529;BME280;35423;37.320;-121.762;2022-07-30T10:00:37;99688.18;;;24.08;31.96
49529;BME280;35423;37.320;-121.762;2022-07-30T10:03:13;99686.75;;;24.06;31.98
49529;BME280;35423;37.320;-121.762;2022-07-30T10:05:29;99687.25;;;24.08;31.98
49529;BME280;35423;37.320;-121.762;2022-07-30T10:08:02;99690.96;;;24.38;32.02
49529;BME280;35423;37.320;-121.762;2022-07-30T10:10:29;99688.79;;;24.29;32.11
49529;BME280;35423;37.320;-121.762;2022-07-30T10:12:59;99686.50;;;23.95;32.20
49529;BME280;35423;37.320;-121.762;2022-07-30T10:15:28;99683.94;;;23.89;32.24
49529;BME280;35423;37.320;-121.762;2022-07-30T10:17:48;99686.18;;;23.83;32.31
49529;BME280;35423;37.320;-121.762;2022-07-30T10:20:20;99687.65;;;24.31;32.37
49529;BME280;35423;37.320;-121.762;2022-07-30T10:22:45;99684.10;;;24.22;32.26
49529;BME280;35423;37.320;-121.762;2022-07-30T10:25:13;99680.48;;;24.15;32.27
49529;BME280;35423;37.320;-121.762;2022-07-30T10:27:41;99679.18;;;24.29;32.37
49529;BME280;35423;37.320;-121.762;2022-07-30T10:30:08;99679.80;;;24.26;32.33
49529;BME280;35423;37.320;-121.762;2022-07-30T10:32:33;99678.13;;;23.78;32.34
49529;BME280;35423;37.320;-121.762;2022-07-30T10:35:02;99680.49;;;24.31;32.31
49529;BME280;35423;37.320;-121.762;2022-07-30T10:37:42;99679.72;;;24.12;32.30
49529;BME280;35423;37.320;-121.762;2022-07-30T10:40:09;99680.49;;;24.10;32.25
49529;BME280;35423;37.320;-121.762;2022-07-30T10:42:42;99682.80;;;24.14;32.40
49529;BME280;35423;37.320;-121.762;2022-07-30T10:45:17;99683.56;;;23.95;32.63
49529;BME280;35423;37.320;-121.762;2022-07-30T10:47:37;99686.68;;;23.64;32.81
49529;BME280;35423;37.320;-121.762;2022-07-30T10:50:07;99688.36;;;24.11;32.78
49529;BME280;35423;37.320;-121.762;2022-07-30T10:54:58;99696.51;;;23.71;32.98
49529;BME280;35423;37.320;-121.762;2022-07-30T10:57:29;99696.58;;;23.83;32.96
49529;BME280;35423;37.320;-121.762;2022-07-30T11:00:09;99696.05;;;23.90;32.96
49529;BME280;35423;37.320;-121.762;2022-07-30T11:02:32;99694.80;;;23.75;33.09
49529;BME280;35423;37.320;-121.762;2022-07-30T11:07:28;99680.70;;;23.95;32.91
49529;BME280;35423;37.320;-121.762;2022-07-30T11:09:50;99680.43;;;23.87;33.00
49529;BME280;35423;37.320;-121.762;2022-07-30T11:14:54;99676.96;;;23.74;33.23
49529;BME280;35423;37.320;-121.762;2022-07-30T11:17:13;99677.09;;;23.83;33.15
49529;BME280;35423;37.320;-121.762;2022-07-30T11:24:41;99664.99;;;23.87;33.07
49529;BME280;35423;37.320;-121.762;2022-07-30T11:26:59;99660.32;;;23.82;33.10
49529;BME280;35423;37.320;-121.762;2022-07-30T11:29:34;99663.15;;;23.66;33.23
49529;BME280;35423;37.320;-121.762;2022-07-30T11:31:53;99662.67;;;23.64;33.26
49529;BME280;35423;37.320;-121.762;2022-07-30T11:34:28;99663.44;;;23.63;33.29
49529;BME280;35423;37.320;-121.762;2022-07-30T11:39:24;99670.37;;;23.63;33.31
49529;BME280;35423;37.320;-121.762;2022-07-30T11:44:26;99669.03;;;23.59;33.36
49529;BME280;35423;37.320;-121.762;2022-07-30T11:46:51;99669.68;;;23.58;33.40
49529;BME280;35423;37.320;-121.762;2022-07-30T11:49:17;99672.80;;;23.62;33.37
49529;BME280;35423;37.320;-121.762;2022-07-30T11:51:47;99674.39;;;23.60;33.36
49529;BME280;35423;37.320;-121.762;2022-07-30T11:54:19;99674.23;;;24.06;33.45
49529;BME280;35423;37.320;-121.762;2022-07-30T11:56:49;99674.79;;;23.68;33.34
49529;BME280;35423;37.320;-121.762;2022-07-30T11:59:10;99676.71;;;23.52;33.53
49529;BME280;35423;37.320;-121.762;2022-07-30T12:01:38;99674.62;;;23.56;33.43
49529;BME280;35423;37.320;-121.762;2022-07-30T12:04:05;99675.18;;;23.44;33.65
49529;BME280;35423;37.320;-121.762;2022-07-30T12:06:30;99678.01;;;23.45;33.59
49529;BME280;35423;37.320;-121.762;2022-07-30T12:08:58;99675.80;;;23.67;33.63
49529;BME280;35423;37.320;-121.762;2022-07-30T12:11:24;99671.46;;;23.40;33.65
49529;BME280;35423;37.320;-121.762;2022-07-30T12:13:55;99666.55;;;23.35;33.70
49529;BME280;35423;37.320;-121.762;2022-07-30T12:16:16;99670.24;;;23.32;33.70
49529;BME280;35423;37.320;-121.762;2022-07-30T12:18:40;99671.68;;;23.30;33.73
49529;BME280;35423;37.320;-121.762;2022-07-30T12:21:13;99676.65;;;23.28;33.80
49529;BME280;35423;37.320;-121.762;2022-07-30T12:23:38;99684.45;;;23.23;33.79
49529;BME280;35423;37.320;-121.762;2022-07-30T12:26:04;99688.70;;;23.16;33.93
49529;BME280;35423;37.320;-121.762;2022-07-30T12:28:30;99689.99;;;23.09;33.98
49529;BME280;35423;37.320;-121.762;2022-07-30T12:30:56;99686.76;;;23.34;34.01
49529;BME280;35423;37.320;-121.762;2022-07-30T12:33:23;99685.94;;;23.25;34.06
49529;BME280;35423;37.320;-121.762;2022-07-30T12:35:50;99687.15;;;22.90;34.14
49529;BME280;35423;37.320;-121.762;2022-07-30T12:38:16;99691.48;;;22.87;34.26
49529;BME280;35423;37.320;-121.762;2022-07-30T12:43:08;99687.11;;;23.04;34.37
49529;BME280;35423;37.320;-121.762;2022-07-30T12:45:33;99689.56;;;23.04;34.42
49529;BME280;35423;37.320;-121.762;2022-07-30T12:47:59;99692.98;;;22.82;34.35
49529;BME280;35423;37.320;-121.762;2022-07-30T12:50:47;99698.94;;;23.38;34.25
49529;BME280;35423;37.320;-121.762;2022-07-30T12:53:13;99702.85;;;23.07;34.29